Hlavní strana
METAR-TAF:

METAR-TAF

Letiště :

Erfurt, Německo

zeměpisná šířka: 50-59N, zeměpisná délka: 010-58E, výška: 315 m

Aktuální stav počasí

Zpráva byla vytvořena před 10 minutami, v 20:50 UTC
Západojihozápadní vítr 7 kt
Teplota 21°C
Vlhkost vzduchu 40%
Tlak 1018 hPa
Viditelnost 10 km a více
Žádná oblačnost pod 1500 m, nevyskytují se cumulonimby.

METAR: EDDE 192050Z 25007KT CAVOK 21/07 Q1018

Čas: 23:00 (21:00 UTC)

Předpověď počasí

Zpráva byla vytvořena před 4 hodinami a 0 minutami, v 17:00 UTC
Předpověď platná od 19 v 18 UTC do 20 v 18 UTC
Západojihozápadní vítr 8 kt
Viditelnost 10 km a více
Žádná oblačnost pod 1500 m, nevyskytují se cumulonimby.

TAF: EDDE 191700Z 1918/2018 25008KT CAVOK

Stav a předpovědi počasí z více než 4 000 letišť (zprávy METAR a TAF).

Červené a žluté tečky na mapě představují dostupné meteorologické stanice.

Když kurzor umístíte na tečku, zobrazí se název stanice.

Pak kliknutím zobrazíte stav a předpověď počasí.

Chcete-li změnit mapu, kliknutím na zelené tlačítko se znaménkem +mapu přiblížíte, kliknutím na zelené tlačítko se znaménkem – mapu oddálíte a kliknutím na zelené šipky přejdete na sousední mapy.


METAR-TAF: